sensor_id;sensor_type;location;lat;lon;timestamp;P1;durP1;ratioP1;P2;durP2;ratioP2
57832;SDS011;43667;53.036;6.740;2023-11-18T00:01:45;203.25;;;62.90;;
57832;SDS011;43667;53.036;6.740;2023-11-18T00:04:11;335.90;;;72.53;;
57832;SDS011;43667;53.036;6.740;2023-11-18T00:06:44;281.90;;;65.68;;
57832;SDS011;43667;53.036;6.740;2023-11-18T00:09:10;287.25;;;66.38;;
57832;SDS011;43667;53.036;6.740;2023-11-18T00:11:42;318.48;;;70.38;;
57832;SDS011;43667;53.036;6.740;2023-11-18T00:14:09;298.83;;;69.75;;
57832;SDS011;43667;53.036;6.740;2023-11-18T00:16:38;214.85;;;60.25;;
57832;SDS011;43667;53.036;6.740;2023-11-18T00:19:04;233.95;;;60.10;;
57832;SDS011;43667;53.036;6.740;2023-11-18T00:21:31;244.65;;;62.05;;
57832;SDS011;43667;53.036;6.740;2023-11-18T00:23:57;320.05;;;68.30;;
57832;SDS011;43667;53.036;6.740;2023-11-18T00:26:23;257.10;;;63.38;;
57832;SDS011;43667;53.036;6.740;2023-11-18T00:28:50;250.80;;;62.08;;
57832;SDS011;43667;53.036;6.740;2023-11-18T00:31:16;283.85;;;66.15;;
57832;SDS011;43667;53.036;6.740;2023-11-18T00:33:42;222.93;;;58.95;;
57832;SDS011;43667;53.036;6.740;2023-11-18T00:36:09;243.07;;;59.90;;
57832;SDS011;43667;53.036;6.740;2023-11-18T00:38:35;279.95;;;61.78;;
57832;SDS011;43667;53.036;6.740;2023-11-18T00:41:00;321.85;;;66.85;;
57832;SDS011;43667;53.036;6.740;2023-11-18T00:43:26;269.38;;;62.08;;
57832;SDS011;43667;53.036;6.740;2023-11-18T00:45:52;293.45;;;64.20;;
57832;SDS011;43667;53.036;6.740;2023-11-18T00:48:18;331.15;;;67.20;;
57832;SDS011;43667;53.036;6.740;2023-11-18T00:50:44;325.00;;;67.03;;
57832;SDS011;43667;53.036;6.740;2023-11-18T00:53:10;276.50;;;62.05;;
57832;SDS011;43667;53.036;6.740;2023-11-18T00:55:36;270.70;;;61.15;;
57832;SDS011;43667;53.036;6.740;2023-11-18T00:58:02;292.88;;;63.60;;
57832;SDS011;43667;53.036;6.740;2023-11-18T01:00:30;303.85;;;63.47;;
57832;SDS011;43667;53.036;6.740;2023-11-18T01:02:56;383.27;;;69.13;;
57832;SDS011;43667;53.036;6.740;2023-11-18T01:05:22;343.88;;;65.13;;
57832;SDS011;43667;53.036;6.740;2023-11-18T01:07:48;357.63;;;68.32;;
57832;SDS011;43667;53.036;6.740;2023-11-18T01:10:14;270.20;;;60.53;;
57832;SDS011;43667;53.036;6.740;2023-11-18T01:12:40;306.30;;;61.25;;
57832;SDS011;43667;53.036;6.740;2023-11-18T01:15:10;211.20;;;53.85;;
57832;SDS011;43667;53.036;6.740;2023-11-18T01:17:37;222.50;;;53.13;;
57832;SDS011;43667;53.036;6.740;2023-11-18T01:20:03;205.82;;;51.17;;
57832;SDS011;43667;53.036;6.740;2023-11-18T01:22:36;176.23;;;48.88;;
57832;SDS011;43667;53.036;6.740;2023-11-18T01:25:03;193.15;;;49.15;;
57832;SDS011;43667;53.036;6.740;2023-11-18T01:27:29;164.10;;;46.05;;
57832;SDS011;43667;53.036;6.740;2023-11-18T01:29:55;137.70;;;44.90;;
57832;SDS011;43667;53.036;6.740;2023-11-18T01:32:21;172.63;;;47.60;;
57832;SDS011;43667;53.036;6.740;2023-11-18T01:34:47;147.52;;;45.17;;
57832;SDS011;43667;53.036;6.740;2023-11-18T01:37:15;194.63;;;50.00;;
57832;SDS011;43667;53.036;6.740;2023-11-18T01:39:41;149.30;;;45.05;;
57832;SDS011;43667;53.036;6.740;2023-11-18T01:42:08;192.80;;;48.38;;
57832;SDS011;43667;53.036;6.740;2023-11-18T01:44:34;178.68;;;46.20;;
57832;SDS011;43667;53.036;6.740;2023-11-18T01:47:01;151.70;;;42.28;;
57832;SDS011;43667;53.036;6.740;2023-11-18T01:49:31;140.90;;;41.95;;
57832;SDS011;43667;53.036;6.740;2023-11-18T01:51:58;125.32;;;40.75;;
57832;SDS011;43667;53.036;6.740;2023-11-18T01:54:26;133.70;;;40.35;;
57832;SDS011;43667;53.036;6.740;2023-11-18T01:56:53;113.50;;;36.88;;
57832;SDS011;43667;53.036;6.740;2023-11-18T01:59:20;122.00;;;37.97;;
57832;SDS011;43667;53.036;6.740;2023-11-18T02:01:50;121.55;;;37.67;;
57832;SDS011;43667;53.036;6.740;2023-11-18T02:04:18;106.07;;;35.58;;
57832;SDS011;43667;53.036;6.740;2023-11-18T02:06:44;103.75;;;34.05;;
57832;SDS011;43667;53.036;6.740;2023-11-18T02:09:13;127.30;;;38.38;;
57832;SDS011;43667;53.036;6.740;2023-11-18T02:11:45;158.45;;;38.15;;
57832;SDS011;43667;53.036;6.740;2023-11-18T02:14:13;108.07;;;33.45;;
57832;SDS011;43667;53.036;6.740;2023-11-18T02:16:41;144.63;;;36.08;;
57832;SDS011;43667;53.036;6.740;2023-11-18T02:19:09;119.80;;;33.63;;
57832;SDS011;43667;53.036;6.740;2023-11-18T02:21:41;85.70;;;31.98;;
57832;SDS011;43667;53.036;6.740;2023-11-18T02:24:08;68.70;;;30.83;;
57832;SDS011;43667;53.036;6.740;2023-11-18T02:26:34;77.15;;;32.25;;
57832;SDS011;43667;53.036;6.740;2023-11-18T02:29:00;55.90;;;28.40;;
57832;SDS011;43667;53.036;6.740;2023-11-18T02:31:27;79.97;;;32.35;;
57832;SDS011;43667;53.036;6.740;2023-11-18T02:34:08;62.90;;;29.88;;
57832;SDS011;43667;53.036;6.740;2023-11-18T02:36:41;62.00;;;30.42;;
57832;SDS011;43667;53.036;6.740;2023-11-18T02:39:20;66.05;;;30.63;;
57832;SDS011;43667;53.036;6.740;2023-11-18T02:41:47;49.42;;;27.55;;
57832;SDS011;43667;53.036;6.740;2023-11-18T02:44:14;61.40;;;28.63;;
57832;SDS011;43667;53.036;6.740;2023-11-18T02:46:42;63.88;;;29.75;;
57832;SDS011;43667;53.036;6.740;2023-11-18T02:49:08;75.53;;;32.70;;
57832;SDS011;43667;53.036;6.740;2023-11-18T02:51:34;82.50;;;33.22;;
57832;SDS011;43667;53.036;6.740;2023-11-18T02:54:07;66.68;;;30.02;;
57832;SDS011;43667;53.036;6.740;2023-11-18T02:56:38;62.83;;;29.95;;
57832;SDS011;43667;53.036;6.740;2023-11-18T02:59:05;81.68;;;32.35;;
57832;SDS011;43667;53.036;6.740;2023-11-18T03:01:31;73.18;;;30.88;;
57832;SDS011;43667;53.036;6.740;2023-11-18T03:03:58;79.85;;;32.63;;
57832;SDS011;43667;53.036;6.740;2023-11-18T03:06:24;82.65;;;33.58;;
57832;SDS011;43667;53.036;6.740;2023-11-18T03:08:51;63.50;;;31.70;;
57832;SDS011;43667;53.036;6.740;2023-11-18T03:11:18;81.82;;;33.35;;
57832;SDS011;43667;53.036;6.740;2023-11-18T03:13:44;92.35;;;33.92;;
57832;SDS011;43667;53.036;6.740;2023-11-18T03:16:13;92.90;;;34.92;;
57832;SDS011;43667;53.036;6.740;2023-11-18T03:18:39;78.63;;;31.92;;
57832;SDS011;43667;53.036;6.740;2023-11-18T03:21:15;89.65;;;33.85;;
57832;SDS011;43667;53.036;6.740;2023-11-18T03:23:41;121.30;;;37.90;;
57832;SDS011;43667;53.036;6.740;2023-11-18T03:26:07;157.63;;;40.75;;
57832;SDS011;43667;53.036;6.740;2023-11-18T03:28:33;101.55;;;35.33;;
57832;SDS011;43667;53.036;6.740;2023-11-18T03:31:01;113.25;;;35.72;;
57832;SDS011;43667;53.036;6.740;2023-11-18T03:33:28;216.98;;;45.13;;
57832;SDS011;43667;53.036;6.740;2023-11-18T03:35:54;87.43;;;34.83;;
57832;SDS011;43667;53.036;6.740;2023-11-18T03:38:21;152.43;;;37.80;;
57832;SDS011;43667;53.036;6.740;2023-11-18T03:40:47;197.25;;;45.60;;
57832;SDS011;43667;53.036;6.740;2023-11-18T03:43:13;196.68;;;43.67;;
57832;SDS011;43667;53.036;6.740;2023-11-18T03:45:39;213.05;;;45.78;;
57832;SDS011;43667;53.036;6.740;2023-11-18T03:48:06;152.05;;;38.28;;
57832;SDS011;43667;53.036;6.740;2023-11-18T03:50:32;216.32;;;46.20;;
57832;SDS011;43667;53.036;6.740;2023-11-18T03:52:58;178.05;;;44.50;;
57832;SDS011;43667;53.036;6.740;2023-11-18T03:55:24;282.67;;;51.15;;
57832;SDS011;43667;53.036;6.740;2023-11-18T03:57:53;258.73;;;52.53;;
57832;SDS011;43667;53.036;6.740;2023-11-18T04:00:19;150.60;;;42.38;;
57832;SDS011;43667;53.036;6.740;2023-11-18T04:02:45;95.63;;;35.60;;
57832;SDS011;43667;53.036;6.740;2023-11-18T04:05:12;177.27;;;42.58;;
57832;SDS011;43667;53.036;6.740;2023-11-18T04:07:38;190.43;;;44.88;;
57832;SDS011;43667;53.036;6.740;2023-11-18T04:10:07;281.23;;;50.42;;
57832;SDS011;43667;53.036;6.740;2023-11-18T04:12:35;209.95;;;44.60;;
57832;SDS011;43667;53.036;6.740;2023-11-18T04:15:01;139.65;;;42.03;;
57832;SDS011;43667;53.036;6.740;2023-11-18T04:17:29;167.23;;;42.50;;
57832;SDS011;43667;53.036;6.740;2023-11-18T04:19:55;233.30;;;50.03;;
57832;SDS011;43667;53.036;6.740;2023-11-18T04:22:22;181.77;;;46.08;;
57832;SDS011;43667;53.036;6.740;2023-11-18T04:24:48;297.15;;;53.50;;
57832;SDS011;43667;53.036;6.740;2023-11-18T04:27:14;197.63;;;44.17;;
57832;SDS011;43667;53.036;6.740;2023-11-18T04:29:41;149.18;;;42.65;;
57832;SDS011;43667;53.036;6.740;2023-11-18T04:32:07;231.38;;;47.95;;
57832;SDS011;43667;53.036;6.740;2023-11-18T04:34:39;410.90;;;61.53;;
57832;SDS011;43667;53.036;6.740;2023-11-18T04:37:07;155.80;;;43.20;;
57832;SDS011;43667;53.036;6.740;2023-11-18T04:39:33;367.27;;;56.80;;
57832;SDS011;43667;53.036;6.740;2023-11-18T04:41:59;168.40;;;42.35;;
57832;SDS011;43667;53.036;6.740;2023-11-18T04:44:28;157.60;;;44.28;;
57832;SDS011;43667;53.036;6.740;2023-11-18T04:46:56;192.82;;;44.30;;
57832;SDS011;43667;53.036;6.740;2023-11-18T04:49:22;439.13;;;65.93;;
57832;SDS011;43667;53.036;6.740;2023-11-18T04:51:49;407.52;;;62.55;;
57832;SDS011;43667;53.036;6.740;2023-11-18T04:54:15;225.85;;;48.05;;
57832;SDS011;43667;53.036;6.740;2023-11-18T04:56:41;260.08;;;55.20;;
57832;SDS011;43667;53.036;6.740;2023-11-18T04:59:07;405.15;;;64.00;;
57832;SDS011;43667;53.036;6.740;2023-11-18T05:01:33;394.23;;;61.10;;
57832;SDS011;43667;53.036;6.740;2023-11-18T05:03:59;252.85;;;52.17;;
57832;SDS011;43667;53.036;6.740;2023-11-18T05:06:25;231.90;;;51.85;;
57832;SDS011;43667;53.036;6.740;2023-11-18T05:08:51;257.23;;;56.85;;
57832;SDS011;43667;53.036;6.740;2023-11-18T05:11:17;430.65;;;62.42;;
57832;SDS011;43667;53.036;6.740;2023-11-18T05:13:43;316.50;;;60.10;;
57832;SDS011;43667;53.036;6.740;2023-11-18T05:16:10;482.02;;;72.40;;
57832;SDS011;43667;53.036;6.740;2023-11-18T05:18:36;366.85;;;65.15;;
57832;SDS011;43667;53.036;6.740;2023-11-18T05:21:04;432.83;;;70.20;;
57832;SDS011;43667;53.036;6.740;2023-11-18T05:23:30;586.80;;;77.55;;
57832;SDS011;43667;53.036;6.740;2023-11-18T05:26:00;527.95;;;75.88;;
57832;SDS011;43667;53.036;6.740;2023-11-18T05:28:30;494.95;;;77.00;;
57832;SDS011;43667;53.036;6.740;2023-11-18T05:30:56;692.65;;;88.45;;
57832;SDS011;43667;53.036;6.740;2023-11-18T05:33:27;680.20;;;87.88;;
57832;SDS011;43667;53.036;6.740;2023-11-18T05:35:54;474.27;;;76.88;;
57832;SDS011;43667;53.036;6.740;2023-11-18T05:38:20;503.42;;;79.05;;
57832;SDS011;43667;53.036;6.740;2023-11-18T05:40:52;468.23;;;72.53;;
57832;SDS011;43667;53.036;6.740;2023-11-18T05:43:29;455.85;;;74.00;;
57832;SDS011;43667;53.036;6.740;2023-11-18T05:46:01;630.22;;;86.97;;
57832;SDS011;43667;53.036;6.740;2023-11-18T05:48:45;703.05;;;89.10;;
57832;SDS011;43667;53.036;6.740;2023-11-18T05:51:11;506.00;;;79.80;;
57832;SDS011;43667;53.036;6.740;2023-11-18T05:53:41;522.90;;;77.55;;
57832;SDS011;43667;53.036;6.740;2023-11-18T05:56:10;701.22;;;90.40;;
57832;SDS011;43667;53.036;6.740;2023-11-18T05:58:36;742.05;;;96.95;;
57832;SDS011;43667;53.036;6.740;2023-11-18T06:01:03;563.00;;;82.10;;
57832;SDS011;43667;53.036;6.740;2023-11-18T06:03:30;589.67;;;80.93;;
57832;SDS011;43667;53.036;6.740;2023-11-18T06:05:56;515.75;;;77.55;;
57832;SDS011;43667;53.036;6.740;2023-11-18T06:08:22;651.22;;;93.60;;
57832;SDS011;43667;53.036;6.740;2023-11-18T06:10:49;748.85;;;97.07;;
57832;SDS011;43667;53.036;6.740;2023-11-18T06:13:17;681.25;;;93.72;;
57832;SDS011;43667;53.036;6.740;2023-11-18T06:15:43;589.65;;;88.97;;
57832;SDS011;43667;53.036;6.740;2023-11-18T06:18:09;573.30;;;86.63;;
57832;SDS011;43667;53.036;6.740;2023-11-18T06:20:35;442.88;;;77.53;;
57832;SDS011;43667;53.036;6.740;2023-11-18T06:23:01;662.15;;;89.82;;
57832;SDS011;43667;53.036;6.740;2023-11-18T06:25:27;559.75;;;86.90;;
57832;SDS011;43667;53.036;6.740;2023-11-18T06:27:54;449.40;;;79.10;;
57832;SDS011;43667;53.036;6.740;2023-11-18T06:30:20;550.63;;;83.28;;
57832;SDS011;43667;53.036;6.740;2023-11-18T06:32:47;708.03;;;96.43;;
57832;SDS011;43667;53.036;6.740;2023-11-18T06:35:13;575.72;;;88.43;;
57832;SDS011;43667;53.036;6.740;2023-11-18T06:37:40;540.28;;;89.72;;
57832;SDS011;43667;53.036;6.740;2023-11-18T06:40:07;545.97;;;87.70;;
57832;SDS011;43667;53.036;6.740;2023-11-18T06:42:44;501.75;;;82.50;;
57832;SDS011;43667;53.036;6.740;2023-11-18T06:45:12;515.40;;;85.05;;
57832;SDS011;43667;53.036;6.740;2023-11-18T06:47:38;633.58;;;92.25;;
57832;SDS011;43667;53.036;6.740;2023-11-18T06:50:08;479.60;;;82.13;;
57832;SDS011;43667;53.036;6.740;2023-11-18T06:52:38;484.48;;;80.72;;
57832;SDS011;43667;53.036;6.740;2023-11-18T06:55:04;464.23;;;81.15;;
57832;SDS011;43667;53.036;6.740;2023-11-18T06:57:30;532.45;;;83.07;;
57832;SDS011;43667;53.036;6.740;2023-11-18T06:59:57;602.75;;;90.68;;
57832;SDS011;43667;53.036;6.740;2023-11-18T07:02:23;516.10;;;80.10;;
57832;SDS011;43667;53.036;6.740;2023-11-18T07:04:49;535.88;;;82.28;;
57832;SDS011;43667;53.036;6.740;2023-11-18T07:07:15;460.02;;;79.00;;
57832;SDS011;43667;53.036;6.740;2023-11-18T07:09:41;544.63;;;84.65;;
57832;SDS011;43667;53.036;6.740;2023-11-18T07:12:09;481.63;;;78.63;;
57832;SDS011;43667;53.036;6.740;2023-11-18T07:14:35;563.60;;;85.88;;
57832;SDS011;43667;53.036;6.740;2023-11-18T07:17:01;630.50;;;91.88;;
57832;SDS011;43667;53.036;6.740;2023-11-18T07:19:29;462.42;;;75.65;;
57832;SDS011;43667;53.036;6.740;2023-11-18T07:21:58;536.65;;;84.43;;
57832;SDS011;43667;53.036;6.740;2023-11-18T07:24:24;530.00;;;82.20;;
57832;SDS011;43667;53.036;6.740;2023-11-18T07:26:50;401.60;;;76.72;;
57832;SDS011;43667;53.036;6.740;2023-11-18T07:29:16;437.77;;;73.90;;
57832;SDS011;43667;53.036;6.740;2023-11-18T07:31:42;511.70;;;82.95;;
57832;SDS011;43667;53.036;6.740;2023-11-18T07:34:10;540.92;;;86.70;;
57832;SDS011;43667;53.036;6.740;2023-11-18T07:36:36;554.72;;;83.88;;
57832;SDS011;43667;53.036;6.740;2023-11-18T07:39:02;446.40;;;78.40;;
57832;SDS011;43667;53.036;6.740;2023-11-18T07:41:28;446.42;;;75.82;;
57832;SDS011;43667;53.036;6.740;2023-11-18T07:43:56;460.20;;;81.57;;
57832;SDS011;43667;53.036;6.740;2023-11-18T07:46:22;442.48;;;77.40;;
57832;SDS011;43667;53.036;6.740;2023-11-18T07:48:49;431.15;;;75.57;;
57832;SDS011;43667;53.036;6.740;2023-11-18T07:51:16;484.70;;;81.13;;
57832;SDS011;43667;53.036;6.740;2023-11-18T07:53:43;407.40;;;73.70;;
57832;SDS011;43667;53.036;6.740;2023-11-18T07:56:09;357.63;;;71.65;;
57832;SDS011;43667;53.036;6.740;2023-11-18T07:58:37;440.33;;;75.13;;
57832;SDS011;43667;53.036;6.740;2023-11-18T08:01:03;349.38;;;70.63;;
57832;SDS011;43667;53.036;6.740;2023-11-18T08:03:33;412.00;;;75.35;;
57832;SDS011;43667;53.036;6.740;2023-11-18T08:06:02;383.35;;;73.60;;
57832;SDS011;43667;53.036;6.740;2023-11-18T08:08:28;403.10;;;76.65;;
57832;SDS011;43667;53.036;6.740;2023-11-18T08:10:54;381.00;;;75.70;;
57832;SDS011;43667;53.036;6.740;2023-11-18T08:13:20;378.38;;;73.03;;
57832;SDS011;43667;53.036;6.740;2023-11-18T08:15:47;441.88;;;77.50;;
57832;SDS011;43667;53.036;6.740;2023-11-18T08:18:13;428.48;;;78.10;;
57832;SDS011;43667;53.036;6.740;2023-11-18T08:20:39;408.23;;;74.25;;
57832;SDS011;43667;53.036;6.740;2023-11-18T08:23:06;392.38;;;74.95;;
57832;SDS011;43667;53.036;6.740;2023-11-18T08:25:32;362.17;;;73.72;;
57832;SDS011;43667;53.036;6.740;2023-11-18T08:28:02;395.58;;;74.82;;
57832;SDS011;43667;53.036;6.740;2023-11-18T08:30:28;362.80;;;70.35;;
57832;SDS011;43667;53.036;6.740;2023-11-18T08:32:54;319.15;;;66.68;;
57832;SDS011;43667;53.036;6.740;2023-11-18T08:35:20;356.80;;;68.90;;
57832;SDS011;43667;53.036;6.740;2023-11-18T08:37:47;382.38;;;70.32;;
57832;SDS011;43667;53.036;6.740;2023-11-18T08:40:13;329.60;;;69.82;;
57832;SDS011;43667;53.036;6.740;2023-11-18T08:42:53;304.88;;;65.00;;
57832;SDS011;43667;53.036;6.740;2023-11-18T08:45:21;337.42;;;65.47;;
57832;SDS011;43667;53.036;6.740;2023-11-18T08:47:52;324.52;;;69.05;;
57832;SDS011;43667;53.036;6.740;2023-11-18T08:50:18;335.25;;;69.95;;
57832;SDS011;43667;53.036;6.740;2023-11-18T08:52:48;352.10;;;68.80;;
57832;SDS011;43667;53.036;6.740;2023-11-18T08:55:18;349.23;;;70.07;;
57832;SDS011;43667;53.036;6.740;2023-11-18T08:58:17;347.70;;;66.38;;
57832;SDS011;43667;53.036;6.740;2023-11-18T09:00:59;331.77;;;67.22;;
57832;SDS011;43667;53.036;6.740;2023-11-18T09:03:38;340.92;;;67.05;;
57832;SDS011;43667;53.036;6.740;2023-11-18T09:06:08;348.38;;;71.22;;
57832;SDS011;43667;53.036;6.740;2023-11-18T09:08:47;383.88;;;72.03;;
57832;SDS011;43667;53.036;6.740;2023-11-18T09:11:19;276.30;;;64.65;;
57832;SDS011;43667;53.036;6.740;2023-11-18T09:13:47;316.58;;;67.40;;
57832;SDS011;43667;53.036;6.740;2023-11-18T09:16:14;300.60;;;68.07;;
57832;SDS011;43667;53.036;6.740;2023-11-18T09:18:42;311.67;;;69.10;;
57832;SDS011;43667;53.036;6.740;2023-11-18T09:21:10;361.52;;;70.43;;
57832;SDS011;43667;53.036;6.740;2023-11-18T09:23:40;328.27;;;68.63;;
57832;SDS011;43667;53.036;6.740;2023-11-18T09:26:06;254.60;;;65.47;;
57832;SDS011;43667;53.036;6.740;2023-11-18T09:28:35;284.45;;;66.18;;
57832;SDS011;43667;53.036;6.740;2023-11-18T09:31:02;239.30;;;66.70;;
57832;SDS011;43667;53.036;6.740;2023-11-18T09:33:29;268.02;;;65.78;;
57832;SDS011;43667;53.036;6.740;2023-11-18T09:35:59;229.40;;;65.03;;
57832;SDS011;43667;53.036;6.740;2023-11-18T09:38:25;264.08;;;68.50;;
57832;SDS011;43667;53.036;6.740;2023-11-18T09:40:55;263.45;;;70.93;;
57832;SDS011;43667;53.036;6.740;2023-11-18T09:43:22;237.85;;;67.53;;
57832;SDS011;43667;53.036;6.740;2023-11-18T09:45:53;233.73;;;70.25;;
57832;SDS011;43667;53.036;6.740;2023-11-18T09:48:20;238.68;;;71.15;;
57832;SDS011;43667;53.036;6.740;2023-11-18T09:51:05;203.65;;;66.65;;
57832;SDS011;43667;53.036;6.740;2023-11-18T09:53:31;227.48;;;69.78;;
57832;SDS011;43667;53.036;6.740;2023-11-18T09:56:12;260.70;;;73.10;;
57832;SDS011;43667;53.036;6.740;2023-11-18T09:58:45;237.35;;;69.82;;
57832;SDS011;43667;53.036;6.740;2023-11-18T10:01:14;200.15;;;66.03;;
57832;SDS011;43667;53.036;6.740;2023-11-18T10:03:43;195.55;;;64.72;;
57832;SDS011;43667;53.036;6.740;2023-11-18T10:06:12;221.52;;;69.10;;
57832;SDS011;43667;53.036;6.740;2023-11-18T10:08:40;198.70;;;66.40;;
57832;SDS011;43667;53.036;6.740;2023-11-18T10:11:11;174.98;;;64.53;;
57832;SDS011;43667;53.036;6.740;2023-11-18T10:13:38;171.75;;;64.43;;
57832;SDS011;43667;53.036;6.740;2023-11-18T10:16:08;174.80;;;64.85;;
57832;SDS011;43667;53.036;6.740;2023-11-18T10:18:34;186.43;;;64.25;;
57832;SDS011;43667;53.036;6.740;2023-11-18T10:21:02;156.25;;;61.90;;
57832;SDS011;43667;53.036;6.740;2023-11-18T10:23:33;157.50;;;61.13;;
57832;SDS011;43667;53.036;6.740;2023-11-18T10:26:02;146.57;;;59.53;;
57832;SDS011;43667;53.036;6.740;2023-11-18T10:30:58;156.77;;;60.42;;
57832;SDS011;43667;53.036;6.740;2023-11-18T10:33:28;145.32;;;57.08;;
57832;SDS011;43667;53.036;6.740;2023-11-18T10:35:58;147.85;;;58.33;;
57832;SDS011;43667;53.036;6.740;2023-11-18T10:38:31;134.75;;;55.42;;
57832;SDS011;43667;53.036;6.740;2023-11-18T10:41:01;125.30;;;53.78;;
57832;SDS011;43667;53.036;6.740;2023-11-18T10:43:27;138.23;;;56.33;;
57832;SDS011;43667;53.036;6.740;2023-11-18T10:46:06;123.05;;;55.80;;
57832;SDS011;43667;53.036;6.740;2023-11-18T10:48:47;142.80;;;54.35;;
57832;SDS011;43667;53.036;6.740;2023-11-18T10:51:17;124.45;;;51.20;;
57832;SDS011;43667;53.036;6.740;2023-11-18T10:53:46;127.95;;;53.13;;
57832;SDS011;43667;53.036;6.740;2023-11-18T10:56:24;111.13;;;49.33;;
57832;SDS011;43667;53.036;6.740;2023-11-18T10:59:06;119.63;;;51.30;;
57832;SDS011;43667;53.036;6.740;2023-11-18T11:03:58;107.97;;;48.67;;
57832;SDS011;43667;53.036;6.740;2023-11-18T11:06:25;106.75;;;48.65;;
57832;SDS011;43667;53.036;6.740;2023-11-18T11:08:51;106.53;;;48.05;;
57832;SDS011;43667;53.036;6.740;2023-11-18T11:11:19;115.57;;;47.35;;
57832;SDS011;43667;53.036;6.740;2023-11-18T11:13:47;91.70;;;44.78;;
57832;SDS011;43667;53.036;6.740;2023-11-18T11:16:16;109.53;;;47.50;;
57832;SDS011;43667;53.036;6.740;2023-11-18T11:18:47;97.70;;;45.60;;
57832;SDS011;43667;53.036;6.740;2023-11-18T11:21:19;97.28;;;45.00;;
57832;SDS011;43667;53.036;6.740;2023-11-18T11:26:23;92.65;;;43.92;;
57832;SDS011;43667;53.036;6.740;2023-11-18T11:29:00;90.90;;;44.85;;
57832;SDS011;43667;53.036;6.740;2023-11-18T11:31:40;85.60;;;43.47;;
57832;SDS011;43667;53.036;6.740;2023-11-18T11:34:14;73.90;;;40.22;;
57832;SDS011;43667;53.036;6.740;2023-11-18T11:36:47;88.82;;;42.65;;
57832;SDS011;43667;53.036;6.740;2023-11-18T11:39:18;80.82;;;40.00;;
57832;SDS011;43667;53.036;6.740;2023-11-18T11:41:51;82.32;;;41.10;;
57832;SDS011;43667;53.036;6.740;2023-11-18T11:44:21;69.70;;;37.28;;
57832;SDS011;43667;53.036;6.740;2023-11-18T11:46:54;72.25;;;36.13;;
57832;SDS011;43667;53.036;6.740;2023-11-18T11:49:21;65.97;;;35.63;;
57832;SDS011;43667;53.036;6.740;2023-11-18T11:51:48;74.20;;;36.13;;
57832;SDS011;43667;53.036;6.740;2023-11-18T11:54:20;59.17;;;33.85;;
57832;SDS011;43667;53.036;6.740;2023-11-18T11:56:47;61.90;;;32.83;;
57832;SDS011;43667;53.036;6.740;2023-11-18T12:02:10;54.95;;;30.83;;
57832;SDS011;43667;53.036;6.740;2023-11-18T12:04:40;51.35;;;29.35;;
57832;SDS011;43667;53.036;6.740;2023-11-18T12:07:09;53.05;;;30.35;;
57832;SDS011;43667;53.036;6.740;2023-11-18T12:09:40;55.53;;;30.80;;
57832;SDS011;43667;53.036;6.740;2023-11-18T12:12:18;50.78;;;29.25;;
57832;SDS011;43667;53.036;6.740;2023-11-18T12:14:48;51.35;;;29.25;;
57832;SDS011;43667;53.036;6.740;2023-11-18T12:17:15;46.50;;;28.40;;
57832;SDS011;43667;53.036;6.740;2023-11-18T12:19:48;49.75;;;28.35;;
57832;SDS011;43667;53.036;6.740;2023-11-18T12:35:19;41.97;;;26.02;;
57832;SDS011;43667;53.036;6.740;2023-11-18T12:43:00;47.90;;;27.08;;
57832;SDS011;43667;53.036;6.740;2023-11-18T12:48:30;41.90;;;24.73;;
57832;SDS011;43667;53.036;6.740;2023-11-18T12:50:57;44.20;;;25.60;;
57832;SDS011;43667;53.036;6.740;2023-11-18T12:53:23;45.40;;;26.13;;
57832;SDS011;43667;53.036;6.740;2023-11-18T12:55:50;47.72;;;25.30;;
57832;SDS011;43667;53.036;6.740;2023-11-18T12:58:17;43.85;;;26.63;;
57832;SDS011;43667;53.036;6.740;2023-11-18T13:00:43;41.35;;;24.63;;
57832;SDS011;43667;53.036;6.740;2023-11-18T13:03:10;38.97;;;24.02;;
57832;SDS011;43667;53.036;6.740;2023-11-18T13:05:40;46.90;;;25.58;;
57832;SDS011;43667;53.036;6.740;2023-11-18T13:08:06;46.33;;;25.65;;
57832;SDS011;43667;53.036;6.740;2023-11-18T13:10:32;46.03;;;26.15;;
57832;SDS011;43667;53.036;6.740;2023-11-18T13:12:58;54.33;;;26.38;;
57832;SDS011;43667;53.036;6.740;2023-11-18T13:15:25;46.67;;;26.92;;
57832;SDS011;43667;53.036;6.740;2023-11-18T13:18:01;42.83;;;26.20;;
57832;SDS011;43667;53.036;6.740;2023-11-18T13:20:31;46.00;;;25.17;;
57832;SDS011;43667;53.036;6.740;2023-11-18T13:23:00;53.30;;;26.88;;
57832;SDS011;43667;53.036;6.740;2023-11-18T13:25:26;48.33;;;26.25;;
57832;SDS011;43667;53.036;6.740;2023-11-18T13:27:52;43.97;;;25.48;;
57832;SDS011;43667;53.036;6.740;2023-11-18T13:30:19;47.15;;;24.67;;
57832;SDS011;43667;53.036;6.740;2023-11-18T13:32:45;46.58;;;25.63;;
57832;SDS011;43667;53.036;6.740;2023-11-18T13:35:14;49.85;;;25.38;;
57832;SDS011;43667;53.036;6.740;2023-11-18T13:37:46;50.25;;;26.83;;
57832;SDS011;43667;53.036;6.740;2023-11-18T13:40:13;44.53;;;25.60;;
57832;SDS011;43667;53.036;6.740;2023-11-18T13:42:39;47.25;;;25.40;;
57832;SDS011;43667;53.036;6.740;2023-11-18T13:45:11;47.35;;;26.45;;
57832;SDS011;43667;53.036;6.740;2023-11-18T13:47:40;48.13;;;24.63;;
57832;SDS011;43667;53.036;6.740;2023-11-18T13:50:07;50.35;;;27.17;;
57832;SDS011;43667;53.036;6.740;2023-11-18T13:52:34;44.35;;;25.73;;
57832;SDS011;43667;53.036;6.740;2023-11-18T13:55:00;38.03;;;23.55;;
57832;SDS011;43667;53.036;6.740;2023-11-18T13:57:26;44.40;;;25.70;;
57832;SDS011;43667;53.036;6.740;2023-11-18T13:59:52;42.95;;;24.10;;
57832;SDS011;43667;53.036;6.740;2023-11-18T14:02:19;49.17;;;24.98;;
57832;SDS011;43667;53.036;6.740;2023-11-18T14:04:46;51.28;;;26.98;;
57832;SDS011;43667;53.036;6.740;2023-11-18T14:07:16;44.95;;;24.33;;
57832;SDS011;43667;53.036;6.740;2023-11-18T14:09:46;47.15;;;25.48;;
57832;SDS011;43667;53.036;6.740;2023-11-18T14:12:12;48.40;;;26.35;;
57832;SDS011;43667;53.036;6.740;2023-11-18T14:14:39;46.42;;;25.80;;
57832;SDS011;43667;53.036;6.740;2023-11-18T14:17:05;47.30;;;25.13;;
57832;SDS011;43667;53.036;6.740;2023-11-18T14:19:32;41.42;;;24.63;;
57832;SDS011;43667;53.036;6.740;2023-11-18T14:22:01;43.47;;;25.20;;
57832;SDS011;43667;53.036;6.740;2023-11-18T14:24:29;38.78;;;22.60;;
57832;SDS011;43667;53.036;6.740;2023-11-18T14:26:57;46.33;;;26.00;;
57832;SDS011;43667;53.036;6.740;2023-11-18T14:29:23;47.72;;;25.15;;
57832;SDS011;43667;53.036;6.740;2023-11-18T14:31:49;44.90;;;25.70;;
57832;SDS011;43667;53.036;6.740;2023-11-18T14:34:15;45.15;;;24.45;;
57832;SDS011;43667;53.036;6.740;2023-11-18T14:36:43;45.20;;;24.52;;
57832;SDS011;43667;53.036;6.740;2023-11-18T14:39:10;43.70;;;24.33;;
57832;SDS011;43667;53.036;6.740;2023-11-18T14:41:40;46.05;;;25.20;;
57832;SDS011;43667;53.036;6.740;2023-11-18T14:44:06;43.15;;;23.90;;
57832;SDS011;43667;53.036;6.740;2023-11-18T14:46:34;42.75;;;24.50;;
57832;SDS011;43667;53.036;6.740;2023-11-18T14:49:03;44.35;;;24.60;;
57832;SDS011;43667;53.036;6.740;2023-11-18T14:51:31;44.92;;;25.20;;